sensor_id;sensor_type;location;lat;lon;timestamp;P1;durP1;ratioP1;P2;durP2;ratioP2
611;SDS011;293;53.888;11.464;2023-05-09T00:00:47;4.30;;;2.80;;
611;SDS011;293;53.888;11.464;2023-05-09T00:03:14;7.90;;;2.40;;
611;SDS011;293;53.888;11.464;2023-05-09T00:05:41;4.23;;;3.20;;
611;SDS011;293;53.888;11.464;2023-05-09T00:08:09;3.00;;;2.73;;
611;SDS011;293;53.888;11.464;2023-05-09T00:10:36;4.60;;;3.70;;
611;SDS011;293;53.888;11.464;2023-05-09T00:13:03;7.17;;;3.97;;
611;SDS011;293;53.888;11.464;2023-05-09T00:15:31;3.00;;;2.50;;
611;SDS011;293;53.888;11.464;2023-05-09T00:17:58;4.97;;;3.50;;
611;SDS011;293;53.888;11.464;2023-05-09T00:20:24;3.27;;;3.03;;
611;SDS011;293;53.888;11.464;2023-05-09T00:22:52;3.63;;;3.33;;
611;SDS011;293;53.888;11.464;2023-05-09T00:25:20;3.93;;;3.20;;
611;SDS011;293;53.888;11.464;2023-05-09T00:27:47;4.87;;;3.87;;
611;SDS011;293;53.888;11.464;2023-05-09T00:30:14;6.07;;;4.30;;
611;SDS011;293;53.888;11.464;2023-05-09T00:32:41;4.67;;;3.40;;
611;SDS011;293;53.888;11.464;2023-05-09T00:35:08;4.30;;;3.90;;
611;SDS011;293;53.888;11.464;2023-05-09T00:37:35;3.70;;;3.20;;
611;SDS011;293;53.888;11.464;2023-05-09T00:40:02;5.50;;;3.70;;
611;SDS011;293;53.888;11.464;2023-05-09T00:42:32;4.13;;;3.83;;
611;SDS011;293;53.888;11.464;2023-05-09T00:44:59;4.20;;;3.90;;
611;SDS011;293;53.888;11.464;2023-05-09T00:47:26;4.90;;;3.73;;
611;SDS011;293;53.888;11.464;2023-05-09T00:49:54;4.10;;;3.50;;
611;SDS011;293;53.888;11.464;2023-05-09T00:52:23;5.97;;;3.63;;
611;SDS011;293;53.888;11.464;2023-05-09T00:54:50;9.00;;;4.00;;
611;SDS011;293;53.888;11.464;2023-05-09T00:57:17;5.17;;;4.63;;
611;SDS011;293;53.888;11.464;2023-05-09T00:59:45;3.87;;;3.47;;
611;SDS011;293;53.888;11.464;2023-05-09T01:02:12;4.23;;;3.83;;
611;SDS011;293;53.888;11.464;2023-05-09T01:04:39;4.40;;;4.00;;
611;SDS011;293;53.888;11.464;2023-05-09T01:07:09;4.10;;;3.80;;
611;SDS011;293;53.888;11.464;2023-05-09T01:09:42;4.23;;;3.83;;
611;SDS011;293;53.888;11.464;2023-05-09T01:12:25;4.43;;;3.60;;
611;SDS011;293;53.888;11.464;2023-05-09T01:15:02;3.83;;;3.53;;
611;SDS011;293;53.888;11.464;2023-05-09T01:17:37;5.70;;;4.17;;
611;SDS011;293;53.888;11.464;2023-05-09T01:20:13;4.87;;;4.47;;
611;SDS011;293;53.888;11.464;2023-05-09T01:22:46;4.40;;;4.00;;
611;SDS011;293;53.888;11.464;2023-05-09T01:25:35;4.37;;;3.97;;
611;SDS011;293;53.888;11.464;2023-05-09T01:28:13;4.17;;;3.77;;
611;SDS011;293;53.888;11.464;2023-05-09T01:30:45;4.23;;;3.50;;
611;SDS011;293;53.888;11.464;2023-05-09T01:33:17;5.07;;;3.90;;
611;SDS011;293;53.888;11.464;2023-05-09T01:35:47;4.97;;;4.40;;
611;SDS011;293;53.888;11.464;2023-05-09T01:38:17;4.47;;;3.90;;
611;SDS011;293;53.888;11.464;2023-05-09T01:40:48;4.10;;;3.70;;
611;SDS011;293;53.888;11.464;2023-05-09T01:43:18;4.90;;;4.40;;
611;SDS011;293;53.888;11.464;2023-05-09T01:45:49;5.00;;;4.60;;
611;SDS011;293;53.888;11.464;2023-05-09T01:48:17;4.80;;;3.43;;
611;SDS011;293;53.888;11.464;2023-05-09T01:50:45;4.97;;;4.33;;
611;SDS011;293;53.888;11.464;2023-05-09T01:53:12;5.43;;;4.93;;
611;SDS011;293;53.888;11.464;2023-05-09T01:55:42;3.83;;;3.53;;
611;SDS011;293;53.888;11.464;2023-05-09T01:58:09;4.63;;;4.23;;
611;SDS011;293;53.888;11.464;2023-05-09T02:00:38;4.30;;;3.93;;
611;SDS011;293;53.888;11.464;2023-05-09T02:03:07;4.53;;;4.13;;
611;SDS011;293;53.888;11.464;2023-05-09T02:05:34;4.00;;;3.67;;
611;SDS011;293;53.888;11.464;2023-05-09T02:08:02;4.90;;;4.00;;
611;SDS011;293;53.888;11.464;2023-05-09T02:10:29;5.37;;;4.87;;
611;SDS011;293;53.888;11.464;2023-05-09T02:12:56;6.10;;;5.50;;
611;SDS011;293;53.888;11.464;2023-05-09T02:15:23;6.80;;;4.67;;
611;SDS011;293;53.888;11.464;2023-05-09T02:17:50;4.50;;;4.10;;
611;SDS011;293;53.888;11.464;2023-05-09T02:20:18;6.40;;;4.97;;
611;SDS011;293;53.888;11.464;2023-05-09T02:22:46;5.03;;;4.53;;
611;SDS011;293;53.888;11.464;2023-05-09T02:25:13;5.07;;;4.53;;
611;SDS011;293;53.888;11.464;2023-05-09T02:27:40;6.00;;;5.03;;
611;SDS011;293;53.888;11.464;2023-05-09T02:30:10;6.87;;;4.33;;
611;SDS011;293;53.888;11.464;2023-05-09T02:32:40;4.47;;;4.07;;
611;SDS011;293;53.888;11.464;2023-05-09T02:35:10;6.00;;;5.37;;
611;SDS011;293;53.888;11.464;2023-05-09T02:37:39;4.83;;;4.40;;
611;SDS011;293;53.888;11.464;2023-05-09T02:40:07;5.60;;;4.83;;
611;SDS011;293;53.888;11.464;2023-05-09T02:42:35;5.10;;;4.60;;
611;SDS011;293;53.888;11.464;2023-05-09T02:45:02;4.83;;;4.43;;
611;SDS011;293;53.888;11.464;2023-05-09T02:47:29;5.07;;;4.67;;
611;SDS011;293;53.888;11.464;2023-05-09T02:49:55;6.00;;;5.33;;
611;SDS011;293;53.888;11.464;2023-05-09T02:52:23;5.77;;;5.17;;
611;SDS011;293;53.888;11.464;2023-05-09T02:54:51;7.50;;;5.70;;
611;SDS011;293;53.888;11.464;2023-05-09T02:57:18;6.00;;;5.17;;
611;SDS011;293;53.888;11.464;2023-05-09T02:59:46;6.20;;;5.50;;
611;SDS011;293;53.888;11.464;2023-05-09T03:02:13;5.30;;;4.70;;
611;SDS011;293;53.888;11.464;2023-05-09T03:04:39;4.73;;;4.33;;
611;SDS011;293;53.888;11.464;2023-05-09T03:07:07;6.23;;;4.97;;
611;SDS011;293;53.888;11.464;2023-05-09T03:09:33;7.43;;;5.07;;
611;SDS011;293;53.888;11.464;2023-05-09T03:12:02;6.97;;;5.50;;
611;SDS011;293;53.888;11.464;2023-05-09T03:14:29;5.40;;;4.90;;
611;SDS011;293;53.888;11.464;2023-05-09T03:16:56;5.90;;;5.40;;
611;SDS011;293;53.888;11.464;2023-05-09T03:19:24;6.27;;;5.23;;
611;SDS011;293;53.888;11.464;2023-05-09T03:21:51;5.40;;;4.90;;
611;SDS011;293;53.888;11.464;2023-05-09T03:24:18;6.47;;;5.17;;
611;SDS011;293;53.888;11.464;2023-05-09T03:26:44;5.33;;;4.50;;
611;SDS011;293;53.888;11.464;2023-05-09T03:29:13;5.40;;;4.90;;
611;SDS011;293;53.888;11.464;2023-05-09T03:31:39;5.43;;;4.67;;
611;SDS011;293;53.888;11.464;2023-05-09T03:34:06;6.20;;;4.10;;
611;SDS011;293;53.888;11.464;2023-05-09T03:36:38;5.30;;;4.80;;
611;SDS011;293;53.888;11.464;2023-05-09T03:39:06;4.53;;;4.07;;
611;SDS011;293;53.888;11.464;2023-05-09T03:41:34;5.13;;;3.97;;
611;SDS011;293;53.888;11.464;2023-05-09T03:44:01;7.60;;;6.10;;
611;SDS011;293;53.888;11.464;2023-05-09T03:46:30;4.80;;;4.00;;
611;SDS011;293;53.888;11.464;2023-05-09T03:48:56;5.00;;;4.50;;
611;SDS011;293;53.888;11.464;2023-05-09T03:51:23;6.80;;;5.40;;
611;SDS011;293;53.888;11.464;2023-05-09T03:53:50;8.00;;;4.33;;
611;SDS011;293;53.888;11.464;2023-05-09T03:56:17;7.30;;;5.00;;
611;SDS011;293;53.888;11.464;2023-05-09T03:58:44;6.00;;;4.80;;
611;SDS011;293;53.888;11.464;2023-05-09T04:01:11;6.00;;;5.40;;
611;SDS011;293;53.888;11.464;2023-05-09T04:03:40;6.10;;;5.50;;
611;SDS011;293;53.888;11.464;2023-05-09T04:06:07;4.57;;;4.00;;
611;SDS011;293;53.888;11.464;2023-05-09T04:08:34;4.87;;;4.47;;
611;SDS011;293;53.888;11.464;2023-05-09T04:11:01;4.37;;;4.00;;
611;SDS011;293;53.888;11.464;2023-05-09T04:13:27;4.93;;;4.43;;
611;SDS011;293;53.888;11.464;2023-05-09T04:15:55;5.60;;;5.10;;
611;SDS011;293;53.888;11.464;2023-05-09T04:18:22;4.73;;;3.90;;
611;SDS011;293;53.888;11.464;2023-05-09T04:20:50;4.60;;;4.17;;
611;SDS011;293;53.888;11.464;2023-05-09T04:23:17;4.50;;;4.10;;
611;SDS011;293;53.888;11.464;2023-05-09T04:25:44;5.37;;;4.10;;
611;SDS011;293;53.888;11.464;2023-05-09T04:28:11;6.37;;;5.13;;
611;SDS011;293;53.888;11.464;2023-05-09T04:30:38;5.33;;;4.70;;
611;SDS011;293;53.888;11.464;2023-05-09T04:33:05;5.13;;;4.73;;
611;SDS011;293;53.888;11.464;2023-05-09T04:35:32;5.77;;;4.67;;
611;SDS011;293;53.888;11.464;2023-05-09T04:38:00;4.63;;;4.23;;
611;SDS011;293;53.888;11.464;2023-05-09T04:40:27;5.33;;;4.83;;
611;SDS011;293;53.888;11.464;2023-05-09T04:42:54;5.87;;;4.60;;
611;SDS011;293;53.888;11.464;2023-05-09T04:45:23;9.60;;;3.97;;
611;SDS011;293;53.888;11.464;2023-05-09T04:47:50;4.80;;;4.40;;
611;SDS011;293;53.888;11.464;2023-05-09T04:50:17;4.30;;;3.83;;
611;SDS011;293;53.888;11.464;2023-05-09T04:52:44;4.57;;;4.17;;
611;SDS011;293;53.888;11.464;2023-05-09T04:55:12;5.33;;;4.83;;
611;SDS011;293;53.888;11.464;2023-05-09T04:57:39;4.70;;;4.30;;
611;SDS011;293;53.888;11.464;2023-05-09T05:00:06;4.40;;;4.10;;
611;SDS011;293;53.888;11.464;2023-05-09T05:02:35;5.87;;;4.57;;
611;SDS011;293;53.888;11.464;2023-05-09T05:05:02;5.80;;;4.30;;
611;SDS011;293;53.888;11.464;2023-05-09T05:07:30;5.00;;;4.00;;
611;SDS011;293;53.888;11.464;2023-05-09T05:09:57;4.23;;;3.93;;
611;SDS011;293;53.888;11.464;2023-05-09T05:12:25;4.60;;;4.20;;
611;SDS011;293;53.888;11.464;2023-05-09T05:14:52;5.13;;;4.43;;
611;SDS011;293;53.888;11.464;2023-05-09T05:17:19;4.23;;;3.93;;
611;SDS011;293;53.888;11.464;2023-05-09T05:19:46;4.10;;;3.80;;
611;SDS011;293;53.888;11.464;2023-05-09T05:22:12;5.90;;;5.40;;
611;SDS011;293;53.888;11.464;2023-05-09T05:24:39;4.50;;;3.97;;
611;SDS011;293;53.888;11.464;2023-05-09T05:27:06;7.23;;;4.70;;
611;SDS011;293;53.888;11.464;2023-05-09T05:29:36;4.93;;;4.07;;
611;SDS011;293;53.888;11.464;2023-05-09T05:32:03;5.23;;;3.97;;
611;SDS011;293;53.888;11.464;2023-05-09T05:34:30;4.20;;;3.83;;
611;SDS011;293;53.888;11.464;2023-05-09T05:36:57;3.80;;;3.53;;
611;SDS011;293;53.888;11.464;2023-05-09T05:39:23;3.53;;;3.33;;
611;SDS011;293;53.888;11.464;2023-05-09T05:41:50;4.53;;;3.73;;
611;SDS011;293;53.888;11.464;2023-05-09T05:44:17;4.07;;;3.67;;
611;SDS011;293;53.888;11.464;2023-05-09T05:46:45;5.07;;;3.90;;
611;SDS011;293;53.888;11.464;2023-05-09T05:49:12;8.17;;;7.57;;
611;SDS011;293;53.888;11.464;2023-05-09T05:51:39;4.60;;;4.20;;
611;SDS011;293;53.888;11.464;2023-05-09T05:54:06;4.03;;;3.67;;
611;SDS011;293;53.888;11.464;2023-05-09T05:56:33;5.77;;;4.37;;
611;SDS011;293;53.888;11.464;2023-05-09T05:58:59;4.60;;;3.07;;
611;SDS011;293;53.888;11.464;2023-05-09T06:01:26;4.23;;;3.37;;
611;SDS011;293;53.888;11.464;2023-05-09T06:03:55;3.63;;;3.37;;
611;SDS011;293;53.888;11.464;2023-05-09T06:06:22;4.27;;;3.60;;
611;SDS011;293;53.888;11.464;2023-05-09T06:08:49;5.17;;;3.83;;
611;SDS011;293;53.888;11.464;2023-05-09T06:11:16;5.40;;;4.10;;
611;SDS011;293;53.888;11.464;2023-05-09T06:13:44;3.67;;;3.37;;
611;SDS011;293;53.888;11.464;2023-05-09T06:16:10;6.87;;;3.77;;
611;SDS011;293;53.888;11.464;2023-05-09T06:18:38;4.30;;;3.90;;
611;SDS011;293;53.888;11.464;2023-05-09T06:21:06;4.93;;;3.80;;
611;SDS011;293;53.888;11.464;2023-05-09T06:23:33;4.10;;;3.80;;
611;SDS011;293;53.888;11.464;2023-05-09T06:26:00;4.13;;;3.17;;
611;SDS011;293;53.888;11.464;2023-05-09T06:28:28;4.10;;;3.70;;
611;SDS011;293;53.888;11.464;2023-05-09T06:30:54;6.13;;;3.30;;
611;SDS011;293;53.888;11.464;2023-05-09T06:33:21;4.57;;;3.60;;
611;SDS011;293;53.888;11.464;2023-05-09T06:35:48;4.33;;;3.50;;
611;SDS011;293;53.888;11.464;2023-05-09T06:38:16;4.33;;;3.93;;
611;SDS011;293;53.888;11.464;2023-05-09T06:40:43;4.60;;;3.83;;
611;SDS011;293;53.888;11.464;2023-05-09T06:43:10;6.60;;;4.30;;
611;SDS011;293;53.888;11.464;2023-05-09T06:45:37;4.60;;;3.73;;
611;SDS011;293;53.888;11.464;2023-05-09T06:48:04;4.40;;;4.00;;
611;SDS011;293;53.888;11.464;2023-05-09T06:50:31;5.20;;;4.30;;
611;SDS011;293;53.888;11.464;2023-05-09T06:52:58;3.43;;;3.23;;
611;SDS011;293;53.888;11.464;2023-05-09T06:55:26;4.50;;;4.20;;
611;SDS011;293;53.888;11.464;2023-05-09T06:57:53;4.83;;;4.40;;
611;SDS011;293;53.888;11.464;2023-05-09T07:00:20;5.17;;;4.77;;
611;SDS011;293;53.888;11.464;2023-05-09T07:02:47;7.80;;;6.00;;
611;SDS011;293;53.888;11.464;2023-05-09T07:05:14;5.70;;;4.60;;
611;SDS011;293;53.888;11.464;2023-05-09T07:07:41;9.10;;;8.17;;
611;SDS011;293;53.888;11.464;2023-05-09T07:10:08;3.37;;;3.07;;
611;SDS011;293;53.888;11.464;2023-05-09T07:12:37;11.53;;;4.63;;
611;SDS011;293;53.888;11.464;2023-05-09T07:15:04;5.33;;;4.50;;
611;SDS011;293;53.888;11.464;2023-05-09T07:17:32;3.93;;;3.63;;
611;SDS011;293;53.888;11.464;2023-05-09T07:19:59;4.43;;;3.97;;
611;SDS011;293;53.888;11.464;2023-05-09T07:22:28;5.30;;;4.07;;
611;SDS011;293;53.888;11.464;2023-05-09T07:24:55;8.23;;;4.30;;
611;SDS011;293;53.888;11.464;2023-05-09T07:27:22;8.13;;;4.60;;
611;SDS011;293;53.888;11.464;2023-05-09T07:29:50;9.83;;;4.37;;
611;SDS011;293;53.888;11.464;2023-05-09T07:32:17;7.97;;;4.00;;
611;SDS011;293;53.888;11.464;2023-05-09T07:34:44;5.43;;;4.60;;
611;SDS011;293;53.888;11.464;2023-05-09T07:37:11;5.20;;;4.70;;
611;SDS011;293;53.888;11.464;2023-05-09T07:39:38;4.60;;;4.20;;
611;SDS011;293;53.888;11.464;2023-05-09T07:42:04;4.10;;;3.80;;
611;SDS011;293;53.888;11.464;2023-05-09T07:44:32;9.30;;;4.20;;
611;SDS011;293;53.888;11.464;2023-05-09T07:47:00;5.33;;;4.20;;
611;SDS011;293;53.888;11.464;2023-05-09T07:49:29;4.10;;;3.70;;
611;SDS011;293;53.888;11.464;2023-05-09T07:51:56;4.27;;;3.67;;
611;SDS011;293;53.888;11.464;2023-05-09T07:54:23;5.63;;;4.10;;
611;SDS011;293;53.888;11.464;2023-05-09T07:56:50;5.33;;;3.63;;
611;SDS011;293;53.888;11.464;2023-05-09T07:59:17;3.90;;;3.60;;
611;SDS011;293;53.888;11.464;2023-05-09T08:01:44;4.83;;;3.50;;
611;SDS011;293;53.888;11.464;2023-05-09T08:04:12;4.00;;;3.63;;
611;SDS011;293;53.888;11.464;2023-05-09T08:06:39;7.60;;;4.70;;
611;SDS011;293;53.888;11.464;2023-05-09T08:09:06;6.70;;;4.10;;
611;SDS011;293;53.888;11.464;2023-05-09T08:11:32;6.80;;;5.97;;
611;SDS011;293;53.888;11.464;2023-05-09T08:14:00;5.77;;;3.80;;
611;SDS011;293;53.888;11.464;2023-05-09T08:16:27;5.07;;;3.97;;
611;SDS011;293;53.888;11.464;2023-05-09T08:18:54;7.00;;;3.43;;
611;SDS011;293;53.888;11.464;2023-05-09T08:21:22;4.50;;;3.57;;
611;SDS011;293;53.888;11.464;2023-05-09T08:23:49;3.43;;;3.10;;
611;SDS011;293;53.888;11.464;2023-05-09T08:26:16;6.30;;;3.30;;
611;SDS011;293;53.888;11.464;2023-05-09T08:28:43;9.43;;;3.40;;
611;SDS011;293;53.888;11.464;2023-05-09T08:31:10;4.93;;;4.40;;
611;SDS011;293;53.888;11.464;2023-05-09T08:33:37;8.40;;;3.30;;
611;SDS011;293;53.888;11.464;2023-05-09T08:36:04;3.87;;;3.40;;
611;SDS011;293;53.888;11.464;2023-05-09T08:38:33;5.00;;;4.10;;
611;SDS011;293;53.888;11.464;2023-05-09T08:41:01;4.37;;;3.97;;
611;SDS011;293;53.888;11.464;2023-05-09T08:43:28;5.73;;;4.33;;
611;SDS011;293;53.888;11.464;2023-05-09T08:45:57;7.33;;;4.50;;
611;SDS011;293;53.888;11.464;2023-05-09T08:48:25;4.30;;;3.60;;
611;SDS011;293;53.888;11.464;2023-05-09T08:50:53;4.17;;;3.77;;
611;SDS011;293;53.888;11.464;2023-05-09T08:53:21;4.10;;;3.60;;
611;SDS011;293;53.888;11.464;2023-05-09T08:55:50;4.53;;;3.57;;
611;SDS011;293;53.888;11.464;2023-05-09T08:58:17;3.93;;;3.63;;
611;SDS011;293;53.888;11.464;2023-05-09T09:00:46;3.63;;;3.27;;
611;SDS011;293;53.888;11.464;2023-05-09T09:03:14;3.90;;;3.60;;
611;SDS011;293;53.888;11.464;2023-05-09T09:05:42;11.00;;;3.87;;
611;SDS011;293;53.888;11.464;2023-05-09T09:08:11;5.87;;;4.03;;
611;SDS011;293;53.888;11.464;2023-05-09T09:10:40;4.20;;;3.80;;
611;SDS011;293;53.888;11.464;2023-05-09T09:13:08;4.20;;;3.90;;
611;SDS011;293;53.888;11.464;2023-05-09T09:15:37;5.00;;;3.80;;
611;SDS011;293;53.888;11.464;2023-05-09T09:18:07;3.27;;;2.93;;
611;SDS011;293;53.888;11.464;2023-05-09T09:20:35;4.77;;;3.90;;
611;SDS011;293;53.888;11.464;2023-05-09T09:23:05;16.63;;;6.93;;
611;SDS011;293;53.888;11.464;2023-05-09T09:25:35;11.63;;;7.43;;
611;SDS011;293;53.888;11.464;2023-05-09T09:28:02;7.33;;;3.77;;
611;SDS011;293;53.888;11.464;2023-05-09T09:30:30;3.37;;;3.07;;
611;SDS011;293;53.888;11.464;2023-05-09T09:32:57;5.27;;;3.60;;
611;SDS011;293;53.888;11.464;2023-05-09T09:35:24;5.20;;;3.60;;
611;SDS011;293;53.888;11.464;2023-05-09T09:37:55;4.07;;;3.47;;
611;SDS011;293;53.888;11.464;2023-05-09T09:40:23;3.87;;;3.50;;
611;SDS011;293;53.888;11.464;2023-05-09T09:42:50;4.07;;;3.73;;
611;SDS011;293;53.888;11.464;2023-05-09T09:45:18;3.60;;;3.30;;
611;SDS011;293;53.888;11.464;2023-05-09T09:47:47;3.73;;;3.40;;
611;SDS011;293;53.888;11.464;2023-05-09T09:50:15;4.23;;;3.77;;
611;SDS011;293;53.888;11.464;2023-05-09T09:52:45;3.00;;;2.80;;
611;SDS011;293;53.888;11.464;2023-05-09T09:55:15;6.60;;;3.30;;
611;SDS011;293;53.888;11.464;2023-05-09T09:57:42;3.67;;;3.30;;
611;SDS011;293;53.888;11.464;2023-05-09T10:00:10;3.47;;;3.17;;
611;SDS011;293;53.888;11.464;2023-05-09T10:02:48;4.73;;;3.30;;
611;SDS011;293;53.888;11.464;2023-05-09T10:05:19;3.93;;;3.63;;
611;SDS011;293;53.888;11.464;2023-05-09T10:07:50;3.37;;;3.17;;
611;SDS011;293;53.888;11.464;2023-05-09T10:10:19;4.37;;;3.20;;
611;SDS011;293;53.888;11.464;2023-05-09T10:12:46;4.60;;;4.20;;
611;SDS011;293;53.888;11.464;2023-05-09T10:15:16;4.93;;;3.73;;
611;SDS011;293;53.888;11.464;2023-05-09T10:17:46;6.10;;;2.80;;
611;SDS011;293;53.888;11.464;2023-05-09T10:20:17;4.00;;;3.07;;
611;SDS011;293;53.888;11.464;2023-05-09T10:22:44;6.50;;;3.13;;
611;SDS011;293;53.888;11.464;2023-05-09T10:25:13;3.93;;;3.50;;
611;SDS011;293;53.888;11.464;2023-05-09T10:27:44;3.83;;;3.30;;
611;SDS011;293;53.888;11.464;2023-05-09T10:30:14;7.73;;;4.23;;
611;SDS011;293;53.888;11.464;2023-05-09T10:32:47;4.90;;;3.70;;
611;SDS011;293;53.888;11.464;2023-05-09T10:35:18;4.20;;;3.40;;
611;SDS011;293;53.888;11.464;2023-05-09T10:37:47;4.17;;;3.87;;
611;SDS011;293;53.888;11.464;2023-05-09T10:40:15;4.27;;;3.87;;
611;SDS011;293;53.888;11.464;2023-05-09T10:42:44;4.47;;;3.10;;
611;SDS011;293;53.888;11.464;2023-05-09T10:45:11;5.80;;;3.10;;
611;SDS011;293;53.888;11.464;2023-05-09T10:47:39;5.60;;;3.20;;
611;SDS011;293;53.888;11.464;2023-05-09T10:50:09;3.53;;;3.20;;
611;SDS011;293;53.888;11.464;2023-05-09T10:55:35;3.60;;;3.30;;
611;SDS011;293;53.888;11.464;2023-05-09T11:00:50;4.47;;;3.97;;
611;SDS011;293;53.888;11.464;2023-05-09T11:03:19;4.60;;;3.50;;
611;SDS011;293;53.888;11.464;2023-05-09T11:05:49;2.80;;;2.60;;
611;SDS011;293;53.888;11.464;2023-05-09T11:08:18;3.50;;;3.03;;
611;SDS011;293;53.888;11.464;2023-05-09T11:10:46;3.50;;;3.20;;
611;SDS011;293;53.888;11.464;2023-05-09T11:13:16;4.83;;;3.03;;
611;SDS011;293;53.888;11.464;2023-05-09T11:16:04;7.73;;;3.67;;
611;SDS011;293;53.888;11.464;2023-05-09T11:18:37;3.60;;;2.77;;
611;SDS011;293;53.888;11.464;2023-05-09T11:21:17;3.73;;;2.90;;
611;SDS011;293;53.888;11.464;2023-05-09T11:23:45;3.23;;;2.47;;
611;SDS011;293;53.888;11.464;2023-05-09T11:26:14;3.37;;;2.80;;
611;SDS011;293;53.888;11.464;2023-05-09T11:28:42;3.80;;;2.93;;
611;SDS011;293;53.888;11.464;2023-05-09T11:31:18;2.87;;;2.67;;
611;SDS011;293;53.888;11.464;2023-05-09T11:33:46;2.83;;;2.47;;
611;SDS011;293;53.888;11.464;2023-05-09T11:36:21;2.70;;;2.50;;
611;SDS011;293;53.888;11.464;2023-05-09T11:38:59;3.03;;;2.10;;
611;SDS011;293;53.888;11.464;2023-05-09T11:41:28;3.50;;;2.70;;
611;SDS011;293;53.888;11.464;2023-05-09T11:43:55;7.77;;;2.80;;
611;SDS011;293;53.888;11.464;2023-05-09T11:46:23;4.43;;;2.80;;
611;SDS011;293;53.888;11.464;2023-05-09T11:48:51;2.90;;;2.60;;
611;SDS011;293;53.888;11.464;2023-05-09T11:51:18;3.83;;;2.50;;
611;SDS011;293;53.888;11.464;2023-05-09T11:53:48;2.50;;;2.20;;
611;SDS011;293;53.888;11.464;2023-05-09T11:56:17;3.37;;;2.17;;
611;SDS011;293;53.888;11.464;2023-05-09T11:58:48;3.30;;;2.00;;
611;SDS011;293;53.888;11.464;2023-05-09T12:01:16;2.47;;;2.27;;
611;SDS011;293;53.888;11.464;2023-05-09T12:03:43;3.40;;;1.90;;
611;SDS011;293;53.888;11.464;2023-05-09T12:06:13;3.93;;;2.67;;
611;SDS011;293;53.888;11.464;2023-05-09T12:08:43;2.80;;;2.20;;
611;SDS011;293;53.888;11.464;2023-05-09T12:11:11;2.70;;;2.10;;
611;SDS011;293;53.888;11.464;2023-05-09T12:13:45;2.80;;;1.80;;
611;SDS011;293;53.888;11.464;2023-05-09T12:16:12;4.77;;;2.20;;
611;SDS011;293;53.888;11.464;2023-05-09T12:18:44;2.27;;;1.90;;
611;SDS011;293;53.888;11.464;2023-05-09T12:21:11;3.63;;;1.73;;
611;SDS011;293;53.888;11.464;2023-05-09T12:23:39;2.63;;;2.27;;
611;SDS011;293;53.888;11.464;2023-05-09T12:26:07;8.13;;;1.77;;
611;SDS011;293;53.888;11.464;2023-05-09T12:28:34;1.70;;;1.60;;
611;SDS011;293;53.888;11.464;2023-05-09T12:31:01;3.33;;;1.73;;
611;SDS011;293;53.888;11.464;2023-05-09T12:33:29;3.73;;;2.00;;
611;SDS011;293;53.888;11.464;2023-05-09T12:36:00;1.67;;;1.57;;
611;SDS011;293;53.888;11.464;2023-05-09T12:38:28;2.87;;;1.60;;
611;SDS011;293;53.888;11.464;2023-05-09T12:40:58;4.23;;;2.40;;
611;SDS011;293;53.888;11.464;2023-05-09T12:43:29;2.20;;;1.83;;
611;SDS011;293;53.888;11.464;2023-05-09T12:45:57;2.27;;;2.07;;
611;SDS011;293;53.888;11.464;2023-05-09T12:48:24;1.77;;;1.50;;
611;SDS011;293;53.888;11.464;2023-05-09T12:50:51;2.20;;;1.70;;
611;SDS011;293;53.888;11.464;2023-05-09T12:53:25;4.60;;;2.23;;
611;SDS011;293;53.888;11.464;2023-05-09T12:55:54;4.57;;;2.37;;
611;SDS011;293;53.888;11.464;2023-05-09T12:58:27;2.67;;;2.30;;
611;SDS011;293;53.888;11.464;2023-05-09T13:00:56;2.20;;;1.93;;
611;SDS011;293;53.888;11.464;2023-05-09T13:03:25;2.57;;;2.07;;
611;SDS011;293;53.888;11.464;2023-05-09T13:05:55;3.17;;;1.57;;
611;SDS011;293;53.888;11.464;2023-05-09T13:08:22;5.03;;;2.10;;
611;SDS011;293;53.888;11.464;2023-05-09T13:10:49;4.50;;;3.47;;
611;SDS011;293;53.888;11.464;2023-05-09T13:13:17;4.17;;;2.30;;
611;SDS011;293;53.888;11.464;2023-05-09T13:15:45;2.07;;;1.60;;
611;SDS011;293;53.888;11.464;2023-05-09T13:18:12;2.20;;;1.77;;
611;SDS011;293;53.888;11.464;2023-05-09T13:20:39;2.33;;;2.13;;
611;SDS011;293;53.888;11.464;2023-05-09T13:23:06;2.50;;;1.70;;
611;SDS011;293;53.888;11.464;2023-05-09T13:25:33;2.73;;;2.50;;
611;SDS011;293;53.888;11.464;2023-05-09T13:28:00;2.60;;;2.40;;
611;SDS011;293;53.888;11.464;2023-05-09T13:30:27;5.80;;;2.33;;
611;SDS011;293;53.888;11.464;2023-05-09T13:32:55;3.80;;;2.77;;
611;SDS011;293;53.888;11.464;2023-05-09T13:35:22;4.20;;;2.13;;
611;SDS011;293;53.888;11.464;2023-05-09T13:37:49;4.77;;;2.10;;
611;SDS011;293;53.888;11.464;2023-05-09T13:40:16;3.73;;;2.37;;
611;SDS011;293;53.888;11.464;2023-05-09T13:42:43;4.40;;;2.00;;
611;SDS011;293;53.888;11.464;2023-05-09T13:45:10;4.67;;;2.10;;
611;SDS011;293;53.888;11.464;2023-05-09T13:47:37;2.60;;;1.73;;
611;SDS011;293;53.888;11.464;2023-05-09T13:50:06;2.27;;;1.63;;
611;SDS011;293;53.888;11.464;2023-05-09T13:52:33;3.33;;;2.67;;
611;SDS011;293;53.888;11.464;2023-05-09T13:55:00;3.10;;;2.80;;
611;SDS011;293;53.888;11.464;2023-05-09T13:57:27;4.40;;;2.17;;
611;SDS011;293;53.888;11.464;2023-05-09T13:59:54;5.30;;;2.20;;
611;SDS011;293;53.888;11.464;2023-05-09T14:02:20;4.43;;;4.13;;
611;SDS011;293;53.888;11.464;2023-05-09T14:04:48;3.10;;;2.13;;
611;SDS011;293;53.888;11.464;2023-05-09T14:07:17;2.10;;;1.90;;
611;SDS011;293;53.888;11.464;2023-05-09T14:09:44;4.40;;;2.33;;
611;SDS011;293;53.888;11.464;2023-05-09T14:12:11;6.30;;;2.87;;
611;SDS011;293;53.888;11.464;2023-05-09T14:14:38;6.70;;;2.67;;
611;SDS011;293;53.888;11.464;2023-05-09T14:17:05;3.77;;;2.30;;
611;SDS011;293;53.888;11.464;2023-05-09T14:19:32;3.57;;;2.60;;
611;SDS011;293;53.888;11.464;2023-05-09T14:21:59;5.70;;;2.23;;
611;SDS011;293;53.888;11.464;2023-05-09T14:24:27;3.17;;;1.90;;
611;SDS011;293;53.888;11.464;2023-05-09T14:26:55;7.90;;;2.83;;
611;SDS011;293;53.888;11.464;2023-05-09T14:29:22;5.70;;;2.57;;
611;SDS011;293;53.888;11.464;2023-05-09T14:31:48;2.60;;;2.37;;
611;SDS011;293;53.888;11.464;2023-05-09T14:34:15;2.37;;;2.10;;
611;SDS011;293;53.888;11.464;2023-05-09T14:36:42;3.13;;;2.00;;
611;SDS011;293;53.888;11.464;2023-05-09T14:39:09;3.73;;;2.10;;
611;SDS011;293;53.888;11.464;2023-05-09T14:41:38;2.70;;;2.40;;
611;SDS011;293;53.888;11.464;2023-05-09T14:44:04;10.13;;;2.40;;
611;SDS011;293;53.888;11.464;2023-05-09T14:46:31;3.40;;;2.23;;
611;SDS011;293;53.888;11.464;2023-05-09T14:48:58;3.97;;;2.40;;
611;SDS011;293;53.888;11.464;2023-05-09T14:51:28;5.37;;;2.60;;
611;SDS011;293;53.888;11.464;2023-05-09T14:53:55;1.97;;;1.80;;
611;SDS011;293;53.888;11.464;2023-05-09T14:56:22;2.10;;;1.90;;
611;SDS011;293;53.888;11.464;2023-05-09T14:58:53;3.77;;;2.57;;
611;SDS011;293;53.888;11.464;2023-05-09T15:01:20;2.93;;;1.70;;
611;SDS011;293;53.888;11.464;2023-05-09T15:03:47;5.03;;;2.50;;
611;SDS011;293;53.888;11.464;2023-05-09T15:06:14;3.20;;;2.73;;
611;SDS011;293;53.888;11.464;2023-05-09T15:08:41;2.10;;;2.00;;
611;SDS011;293;53.888;11.464;2023-05-09T15:11:08;2.73;;;1.80;;
611;SDS011;293;53.888;11.464;2023-05-09T15:13:35;11.40;;;3.37;;
611;SDS011;293;53.888;11.464;2023-05-09T15:16:03;2.80;;;2.50;;
611;SDS011;293;53.888;11.464;2023-05-09T15:18:30;2.43;;;2.20;;
611;SDS011;293;53.888;11.464;2023-05-09T15:20:58;2.53;;;2.33;;
611;SDS011;293;53.888;11.464;2023-05-09T15:23:25;3.33;;;2.47;;
611;SDS011;293;53.888;11.464;2023-05-09T15:25:52;5.30;;;2.50;;
611;SDS011;293;53.888;11.464;2023-05-09T15:28:19;5.37;;;3.10;;
611;SDS011;293;53.888;11.464;2023-05-09T15:30:46;4.23;;;2.53;;
611;SDS011;293;53.888;11.464;2023-05-09T15:33:14;3.70;;;1.90;;
611;SDS011;293;53.888;11.464;2023-05-09T15:35:41;5.90;;;2.10;;
611;SDS011;293;53.888;11.464;2023-05-09T15:38:09;4.20;;;2.40;;
611;SDS011;293;53.888;11.464;2023-05-09T15:40:37;3.60;;;2.37;;